createdAt,value
2023-03-08T00:00:13.406Z,100.00
2023-03-08T00:02:39.771Z,100.00
2023-03-08T00:05:06.936Z,100.00
2023-03-08T00:07:33.559Z,100.00
2023-03-08T00:09:59.941Z,100.00
2023-03-08T00:12:26.341Z,100.00
2023-03-08T00:14:52.696Z,100.00
2023-03-08T00:17:19.247Z,100.00
2023-03-08T00:19:45.741Z,100.00
2023-03-08T00:22:12.310Z,100.00
2023-03-08T00:24:38.638Z,100.00
2023-03-08T00:27:05.213Z,100.00
2023-03-08T00:29:31.605Z,100.00
2023-03-08T00:31:58.006Z,100.00
2023-03-08T00:34:24.645Z,100.00
2023-03-08T00:36:51.010Z,100.00
2023-03-08T00:39:18.257Z,100.00
2023-03-08T00:41:44.637Z,100.00
2023-03-08T00:44:10.983Z,100.00
2023-03-08T00:46:37.349Z,100.00
2023-03-08T00:49:04.824Z,100.00
2023-03-08T00:51:31.180Z,100.00
2023-03-08T00:53:57.521Z,100.00
2023-03-08T00:56:23.921Z,100.00
2023-03-08T00:58:50.272Z,100.00
2023-03-08T01:01:18.239Z,100.00
2023-03-08T01:03:44.728Z,100.00
2023-03-08T01:06:12.746Z,100.00
2023-03-08T01:08:41.934Z,100.00
2023-03-08T01:11:16.481Z,100.00
2023-03-08T01:13:42.858Z,100.00
2023-03-08T01:16:17.380Z,100.00
2023-03-08T01:18:43.790Z,100.00
2023-03-08T01:21:10.351Z,100.00
2023-03-08T01:23:36.930Z,100.00
2023-03-08T01:26:12.427Z,100.00
2023-03-08T01:28:38.834Z,100.00
2023-03-08T01:31:07.071Z,100.00
2023-03-08T01:33:33.684Z,100.00
2023-03-08T01:36:00.332Z,100.00
2023-03-08T01:38:26.697Z,100.00
2023-03-08T01:40:59.572Z,100.00
2023-03-08T01:43:30.650Z,100.00
2023-03-08T01:46:23.293Z,100.00
2023-03-08T01:49:00.319Z,100.00
2023-03-08T01:51:39.535Z,100.00
2023-03-08T01:54:15.323Z,100.00
2023-03-08T01:56:42.087Z,100.00
2023-03-08T01:59:08.431Z,100.00
2023-03-08T02:01:34.905Z,100.00
2023-03-08T02:04:29.272Z,100.00
2023-03-08T02:06:55.664Z,100.00
2023-03-08T02:09:31.254Z,100.00
2023-03-08T02:11:59.692Z,100.00
2023-03-08T02:14:26.147Z,100.00
2023-03-08T02:16:52.480Z,100.00
2023-03-08T02:19:34.220Z,100.00
2023-03-08T02:22:08.248Z,100.00
2023-03-08T02:24:34.776Z,100.00
2023-03-08T02:27:04.800Z,100.00
2023-03-08T02:29:31.210Z,100.00
2023-03-08T02:31:57.597Z,100.00
2023-03-08T02:34:23.980Z,100.00
2023-03-08T02:36:53.310Z,100.00
2023-03-08T02:39:19.692Z,100.00
2023-03-08T02:41:46.062Z,100.00
2023-03-08T02:44:12.407Z,100.00
2023-03-08T02:46:38.812Z,100.00
2023-03-08T02:49:05.178Z,100.00
2023-03-08T02:51:31.557Z,100.00
2023-03-08T02:53:57.942Z,100.00
2023-03-08T02:56:24.696Z,100.00
2023-03-08T02:58:51.060Z,100.00
2023-03-08T03:01:17.495Z,100.00
2023-03-08T03:03:44.090Z,100.00
2023-03-08T03:06:17.904Z,100.00
2023-03-08T03:08:44.302Z,100.00
2023-03-08T03:11:15.206Z,100.00
2023-03-08T03:13:41.595Z,99.95
2023-03-08T03:16:09.303Z,99.15
2023-03-08T03:18:35.904Z,97.70
2023-03-08T03:21:06.319Z,97.97
2023-03-08T03:23:32.708Z,98.52
2023-03-08T03:26:09.944Z,99.25
2023-03-08T03:28:36.398Z,98.35
2023-03-08T03:31:07.257Z,97.70
2023-03-08T03:33:33.829Z,96.97
2023-03-08T03:36:00.236Z,98.40
2023-03-08T03:38:26.614Z,97.87
2023-03-08T03:41:09.200Z,98.41
2023-03-08T03:43:35.657Z,99.91
2023-03-08T03:46:03.600Z,100.00
2023-03-08T03:48:30.029Z,100.00
2023-03-08T03:50:57.361Z,99.19
2023-03-08T03:53:24.185Z,98.41
2023-03-08T03:55:50.754Z,97.39
2023-03-08T03:58:17.235Z,96.62
2023-03-08T04:00:43.606Z,97.69
2023-03-08T04:03:10.281Z,96.09
2023-03-08T04:05:36.677Z,96.34
2023-03-08T04:08:03.261Z,98.01
2023-03-08T04:10:31.171Z,99.68
2023-03-08T04:12:57.587Z,100.00
2023-03-08T04:15:23.925Z,100.00
2023-03-08T04:17:51.191Z,100.00
2023-03-08T04:20:17.655Z,100.00
2023-03-08T04:22:44.000Z,100.00
2023-03-08T04:25:10.649Z,100.00
2023-03-08T04:27:36.983Z,100.00
2023-03-08T04:30:04.012Z,100.00
2023-03-08T04:32:32.555Z,100.00
2023-03-08T04:34:58.984Z,100.00
2023-03-08T04:37:25.440Z,100.00
2023-03-08T04:39:51.967Z,100.00
2023-03-08T04:42:18.306Z,100.00
2023-03-08T04:44:44.649Z,100.00
2023-03-08T04:47:11.244Z,100.00
2023-03-08T04:49:37.607Z,100.00
2023-03-08T04:52:04.137Z,100.00
2023-03-08T04:54:30.670Z,100.00
2023-03-08T04:56:57.336Z,100.00
2023-03-08T04:59:23.692Z,100.00
2023-03-08T05:01:50.312Z,100.00
2023-03-08T05:04:16.724Z,100.00
2023-03-08T05:06:43.078Z,100.00
2023-03-08T05:09:09.461Z,100.00
2023-03-08T05:11:35.789Z,100.00
2023-03-08T05:14:02.138Z,100.00
2023-03-08T05:16:28.873Z,100.00
2023-03-08T05:18:55.289Z,100.00
2023-03-08T05:21:22.458Z,100.00
2023-03-08T05:23:49.054Z,100.00
2023-03-08T05:26:16.332Z,100.00
2023-03-08T05:28:42.725Z,100.00
2023-03-08T05:31:14.528Z,100.00
2023-03-08T05:33:41.004Z,100.00
2023-03-08T05:36:07.891Z,100.00
2023-03-08T05:38:34.647Z,100.00
2023-03-08T05:41:02.055Z,100.00
2023-03-08T05:43:28.420Z,100.00
2023-03-08T05:45:59.151Z,100.00
2023-03-08T05:48:25.686Z,100.00
2023-03-08T05:50:52.523Z,100.00
2023-03-08T05:53:19.080Z,100.00
2023-03-08T05:55:45.442Z,100.00
2023-03-08T05:58:11.805Z,100.00
2023-03-08T06:00:38.291Z,100.00
2023-03-08T06:03:04.706Z,100.00
2023-03-08T06:05:31.885Z,100.00
2023-03-08T06:07:58.458Z,100.00
2023-03-08T06:10:24.908Z,100.00
2023-03-08T06:12:51.569Z,100.00
2023-03-08T06:15:17.992Z,100.00
2023-03-08T06:17:44.373Z,100.00
2023-03-08T06:20:11.140Z,100.00
2023-03-08T06:22:37.700Z,100.00
2023-03-08T06:25:07.119Z,100.00
2023-03-08T06:27:33.454Z,100.00
2023-03-08T06:29:59.839Z,100.00
2023-03-08T06:32:26.190Z,100.00
2023-03-08T06:34:52.565Z,100.00
2023-03-08T06:37:18.964Z,100.00
2023-03-08T06:39:45.364Z,100.00
2023-03-08T06:42:11.706Z,100.00
2023-03-08T06:44:40.004Z,100.00
2023-03-08T06:47:06.492Z,100.00
2023-03-08T06:49:33.765Z,100.00
2023-03-08T06:52:00.199Z,100.00
2023-03-08T06:54:26.579Z,96.14
2023-03-08T06:56:52.993Z,88.45
2023-03-08T06:59:19.486Z,85.92
2023-03-08T07:01:45.836Z,83.86
2023-03-08T07:04:12.280Z,80.68
2023-03-08T07:06:38.666Z,80.68
2023-03-08T07:09:05.083Z,80.21
2023-03-08T07:11:32.226Z,80.47
2023-03-08T07:13:59.295Z,80.13
2023-03-08T07:16:25.876Z,78.57
2023-03-08T07:18:52.411Z,78.15
2023-03-08T07:21:18.788Z,78.70
2023-03-08T07:23:45.160Z,78.90
2023-03-08T07:26:11.542Z,77.76
2023-03-08T07:28:38.116Z,76.66
2023-03-08T07:31:04.839Z,77.49
2023-03-08T07:33:31.428Z,76.89
2023-03-08T07:36:01.504Z,76.97
2023-03-08T07:38:28.053Z,79.38
2023-03-08T07:40:56.014Z,76.65
2023-03-08T07:43:23.293Z,78.75
2023-03-08T07:45:49.661Z,79.01
2023-03-08T07:48:16.073Z,79.37
2023-03-08T07:50:42.500Z,78.58
2023-03-08T07:53:08.877Z,78.14
2023-03-08T07:55:36.867Z,78.67
2023-03-08T07:58:03.278Z,79.33
2023-03-08T08:00:29.684Z,75.64
2023-03-08T08:02:56.331Z,76.90
2023-03-08T08:05:22.974Z,75.81
2023-03-08T08:07:49.406Z,75.96
2023-03-08T08:10:16.317Z,73.01
2023-03-08T08:12:42.757Z,67.22
2023-03-08T08:15:09.572Z,62.95
2023-03-08T08:17:36.167Z,62.42
2023-03-08T08:20:02.557Z,62.24
2023-03-08T08:22:28.919Z,60.12
2023-03-08T08:24:55.512Z,60.88
2023-03-08T08:27:21.878Z,59.36
2023-03-08T08:29:50.932Z,55.81
2023-03-08T08:32:17.434Z,53.68
2023-03-08T08:34:43.920Z,57.11
2023-03-08T08:37:10.471Z,57.91
2023-03-08T08:39:36.907Z,66.08
2023-03-08T08:42:03.629Z,63.06
2023-03-08T08:44:29.976Z,61.00
2023-03-08T08:46:56.393Z,62.27
2023-03-08T08:49:22.769Z,61.28
2023-03-08T08:51:49.138Z,60.12
2023-03-08T08:54:15.854Z,59.00
2023-03-08T08:56:43.513Z,61.27
2023-03-08T08:59:11.575Z,62.32
2023-03-08T09:01:43.325Z,61.40
2023-03-08T09:04:11.453Z,65.23
2023-03-08T09:06:37.978Z,73.42
2023-03-08T09:09:05.334Z,73.25
2023-03-08T09:11:33.478Z,72.86
2023-03-08T09:14:02.493Z,70.61
2023-03-08T09:16:30.541Z,64.17
2023-03-08T09:18:57.945Z,64.24
2023-03-08T09:21:25.340Z,62.90
2023-03-08T09:23:51.843Z,63.74
2023-03-08T09:26:18.524Z,59.68
2023-03-08T09:28:45.059Z,60.28
2023-03-08T09:31:14.880Z,61.81
2023-03-08T09:33:46.140Z,60.96
2023-03-08T09:36:12.816Z,52.82
2023-03-08T09:38:39.291Z,58.24
2023-03-08T09:41:17.611Z,57.78
2023-03-08T09:43:47.610Z,61.47
2023-03-08T09:46:15.228Z,66.01
2023-03-08T09:48:44.479Z,63.31
2023-03-08T09:51:11.406Z,64.59
2023-03-08T09:53:46.835Z,69.67
2023-03-08T09:56:29.976Z,69.11
2023-03-08T09:59:06.033Z,70.71
2023-03-08T10:02:01.604Z,74.17
2023-03-08T10:04:40.732Z,66.57
2023-03-08T10:07:18.246Z,75.19
2023-03-08T10:09:58.932Z,83.68
2023-03-08T10:12:53.129Z,100.00
2023-03-08T10:15:23.521Z,100.00
2023-03-08T10:17:54.328Z,100.00
2023-03-08T10:20:30.159Z,100.00
2023-03-08T10:23:01.650Z,83.52
2023-03-08T10:25:34.053Z,75.68
2023-03-08T10:28:02.075Z,77.12
2023-03-08T10:30:33.616Z,78.82
2023-03-08T10:33:00.741Z,83.75
2023-03-08T10:35:38.576Z,81.39
2023-03-08T10:38:14.389Z,89.34
2023-03-08T10:40:40.974Z,87.67
2023-03-08T10:43:07.432Z,78.34
2023-03-08T10:45:33.861Z,75.29
2023-03-08T10:48:07.083Z,75.83
2023-03-08T10:50:37.386Z,74.12
2023-03-08T10:53:10.572Z,75.89
2023-03-08T10:55:42.288Z,76.55
2023-03-08T10:58:37.233Z,85.21
2023-03-08T11:01:05.203Z,82.17
2023-03-08T11:03:32.117Z,81.05
2023-03-08T11:06:14.898Z,80.65
2023-03-08T11:08:54.664Z,82.48
2023-03-08T11:11:21.160Z,77.84
2023-03-08T11:13:49.017Z,80.70
2023-03-08T11:16:43.835Z,78.50
2023-03-08T11:19:49.398Z,78.86
2023-03-08T11:22:49.897Z,82.86
2023-03-08T11:25:46.223Z,84.19
2023-03-08T11:28:34.308Z,87.86
2023-03-08T11:31:35.784Z,82.78
2023-03-08T11:34:08.370Z,78.54
2023-03-08T11:36:55.017Z,83.52
2023-03-08T11:39:24.566Z,81.14
2023-03-08T11:42:02.777Z,95.82
2023-03-08T11:44:38.362Z,100.00
2023-03-08T11:47:04.803Z,100.00
2023-03-08T11:49:36.943Z,100.00
2023-03-08T11:52:18.650Z,100.00
2023-03-08T11:55:05.245Z,100.00
2023-03-08T11:57:34.601Z,94.99
2023-03-08T12:00:12.900Z,75.32
2023-03-08T12:02:42.697Z,65.41
2023-03-08T12:05:33.415Z,57.87
2023-03-08T12:08:15.883Z,33.38
2023-03-08T12:10:48.064Z,21.12
2023-03-08T12:13:33.004Z,40.25
2023-03-08T12:16:23.037Z,36.41
2023-03-08T12:19:20.916Z,35.98
2023-03-08T12:22:06.090Z,30.35
2023-03-08T12:24:38.507Z,22.30
2023-03-08T12:27:40.519Z,18.44
2023-03-08T12:30:15.749Z,17.73
2023-03-08T12:32:42.576Z,21.21
2023-03-08T12:35:30.130Z,17.70
2023-03-08T12:38:03.636Z,20.15
2023-03-08T12:40:46.137Z,22.87
2023-03-08T12:43:13.571Z,28.20
2023-03-08T12:45:44.087Z,36.87
2023-03-08T12:48:23.048Z,38.53
2023-03-08T12:50:52.740Z,39.38
2023-03-08T12:53:29.483Z,40.77
2023-03-08T12:56:03.529Z,41.66
2023-03-08T12:58:30.792Z,51.74
2023-03-08T13:01:01.764Z,54.29
2023-03-08T13:03:36.014Z,50.66
2023-03-08T13:06:14.020Z,49.51
2023-03-08T13:08:43.063Z,51.81
2023-03-08T13:11:15.286Z,54.65
2023-03-08T13:13:50.416Z,56.47
2023-03-08T13:16:30.335Z,62.50
2023-03-08T13:19:03.403Z,61.34
2023-03-08T13:21:35.098Z,58.50
2023-03-08T13:24:04.730Z,60.78
2023-03-08T13:26:50.788Z,57.33
2023-03-08T13:29:18.945Z,58.82
2023-03-08T13:31:46.641Z,57.38
2023-03-08T13:34:32.540Z,54.05
2023-03-08T13:36:59.004Z,54.74
2023-03-08T13:39:27.076Z,55.57
2023-03-08T13:41:53.877Z,53.80
2023-03-08T13:44:27.198Z,55.37
2023-03-08T13:47:00.325Z,57.49
2023-03-08T13:49:26.695Z,57.16
2023-03-08T13:51:54.711Z,57.31
2023-03-08T13:54:34.755Z,58.21
2023-03-08T13:57:03.215Z,56.04
2023-03-08T13:59:29.936Z,53.91
2023-03-08T14:01:56.675Z,55.03
2023-03-08T14:04:26.203Z,52.77
2023-03-08T14:06:56.981Z,53.26
2023-03-08T14:09:23.886Z,54.32
2023-03-08T14:12:02.034Z,58.06
2023-03-08T14:14:31.046Z,60.25
2023-03-08T14:16:57.520Z,59.43
2023-03-08T14:19:27.830Z,56.45
2023-03-08T14:22:02.331Z,54.59
2023-03-08T14:24:33.276Z,52.73
2023-03-08T14:27:00.734Z,55.20
2023-03-08T14:29:36.506Z,57.34
2023-03-08T14:32:06.277Z,54.41
2023-03-08T14:34:42.869Z,52.75
2023-03-08T14:37:12.330Z,54.11
2023-03-08T14:39:41.024Z,53.58
2023-03-08T14:42:22.712Z,53.09
2023-03-08T14:45:03.929Z,53.60
2023-03-08T14:47:31.828Z,56.93
2023-03-08T14:50:25.583Z,59.38
2023-03-08T14:52:53.848Z,56.95
2023-03-08T14:55:28.374Z,58.31
2023-03-08T14:58:00.347Z,60.63
2023-03-08T15:00:29.815Z,62.10
2023-03-08T15:02:57.144Z,64.62
2023-03-08T15:05:29.302Z,60.51
2023-03-08T15:07:56.644Z,60.66
2023-03-08T15:10:27.658Z,56.80
2023-03-08T15:12:54.072Z,58.20
2023-03-08T15:15:20.538Z,57.68
2023-03-08T15:17:47.309Z,56.26
2023-03-08T15:20:13.841Z,59.36
2023-03-08T15:22:51.716Z,57.62
2023-03-08T15:25:25.274Z,54.64
2023-03-08T15:27:51.820Z,51.31
2023-03-08T15:30:20.363Z,51.01
2023-03-08T15:32:46.848Z,50.13
2023-03-08T15:35:13.492Z,51.47
2023-03-08T15:37:40.020Z,52.25
2023-03-08T15:40:09.837Z,51.29
2023-03-08T15:42:36.270Z,49.65
2023-03-08T15:45:02.763Z,52.38
2023-03-08T15:47:29.271Z,56.30
2023-03-08T15:49:55.638Z,62.84
2023-03-08T15:52:24.662Z,65.74
2023-03-08T15:54:52.624Z,67.23
2023-03-08T15:57:19.044Z,71.75
2023-03-08T15:59:45.393Z,74.50
2023-03-08T16:02:16.269Z,77.36
2023-03-08T16:04:45.623Z,79.90
2023-03-08T16:07:13.593Z,84.74
2023-03-08T16:09:39.948Z,87.50
2023-03-08T16:12:06.492Z,91.74
2023-03-08T16:14:32.961Z,95.70
2023-03-08T16:16:59.379Z,100.00
2023-03-08T16:19:25.720Z,100.00
2023-03-08T16:21:52.121Z,100.00
2023-03-08T16:24:18.485Z,100.00
2023-03-08T16:26:45.040Z,100.00
2023-03-08T16:29:11.461Z,100.00
2023-03-08T16:31:38.111Z,100.00
2023-03-08T16:34:05.547Z,100.00
2023-03-08T16:36:32.868Z,100.00
2023-03-08T16:38:59.226Z,100.00
2023-03-08T16:41:26.251Z,100.00
2023-03-08T16:43:52.607Z,100.00
2023-03-08T16:46:20.390Z,100.00
2023-03-08T16:48:49.627Z,100.00
2023-03-08T16:51:17.653Z,100.00
2023-03-08T16:53:44.131Z,100.00
2023-03-08T16:56:26.591Z,100.00
2023-03-08T16:58:53.707Z,100.00
2023-03-08T17:01:20.222Z,100.00
2023-03-08T17:03:46.694Z,100.00
2023-03-08T17:06:15.060Z,100.00
2023-03-08T17:08:41.426Z,100.00
2023-03-08T17:11:15.472Z,100.00
2023-03-08T17:13:41.828Z,100.00
2023-03-08T17:16:11.478Z,100.00
2023-03-08T17:18:37.880Z,100.00
2023-03-08T17:21:05.599Z,100.00
2023-03-08T17:23:32.164Z,100.00
2023-03-08T17:25:58.528Z,100.00
2023-03-08T17:28:24.875Z,100.00
2023-03-08T17:30:51.349Z,100.00
2023-03-08T17:33:17.693Z,100.00
2023-03-08T17:35:44.731Z,100.00
2023-03-08T17:38:11.199Z,100.00
2023-03-08T17:40:40.103Z,100.00
2023-03-08T17:43:06.468Z,100.00
2023-03-08T17:45:32.881Z,100.00
2023-03-08T17:48:02.649Z,100.00
2023-03-08T17:50:32.017Z,100.00
2023-03-08T17:52:58.530Z,100.00
2023-03-08T17:55:25.229Z,100.00
2023-03-08T17:57:51.644Z,100.00
2023-03-08T18:00:19.297Z,100.00
2023-03-08T18:02:46.253Z,100.00
2023-03-08T18:05:12.850Z,100.00
2023-03-08T18:07:41.586Z,100.00
2023-03-08T18:10:11.088Z,100.00
2023-03-08T18:12:37.457Z,100.00
2023-03-08T18:15:04.365Z,100.00
2023-03-08T18:17:30.908Z,100.00
2023-03-08T18:19:57.277Z,100.00
2023-03-08T18:22:23.927Z,100.00
2023-03-08T18:24:50.284Z,100.00
2023-03-08T18:27:16.669Z,100.00
2023-03-08T18:29:43.189Z,100.00
2023-03-08T18:32:10.182Z,100.00
2023-03-08T18:34:38.448Z,100.00
2023-03-08T18:37:05.268Z,100.00
2023-03-08T18:39:31.946Z,100.00
2023-03-08T18:42:00.631Z,100.00
2023-03-08T18:44:27.087Z,100.00
2023-03-08T18:46:53.694Z,100.00
2023-03-08T18:49:20.601Z,100.00
2023-03-08T18:51:47.066Z,100.00
2023-03-08T18:54:17.188Z,100.00
2023-03-08T18:56:44.237Z,100.00
2023-03-08T18:59:12.102Z,100.00
2023-03-08T19:01:38.510Z,100.00
2023-03-08T19:04:06.334Z,100.00
2023-03-08T19:06:32.981Z,100.00
2023-03-08T19:08:59.487Z,100.00
2023-03-08T19:11:27.275Z,100.00
2023-03-08T19:13:53.659Z,100.00
2023-03-08T19:16:22.180Z,100.00
2023-03-08T19:18:49.707Z,100.00
2023-03-08T19:21:21.070Z,100.00
2023-03-08T19:23:47.690Z,100.00
2023-03-08T19:26:33.777Z,100.00
2023-03-08T19:29:00.904Z,100.00
2023-03-08T19:31:28.171Z,100.00
2023-03-08T19:33:54.601Z,100.00
2023-03-08T19:36:20.962Z,100.00
2023-03-08T19:38:47.394Z,100.00
2023-03-08T19:41:13.935Z,100.00
2023-03-08T19:43:40.286Z,100.00
2023-03-08T19:46:06.926Z,100.00
2023-03-08T19:48:33.306Z,100.00
2023-03-08T19:50:59.656Z,100.00
2023-03-08T19:53:26.000Z,100.00
2023-03-08T19:55:53.233Z,100.00
2023-03-08T19:58:19.785Z,100.00
2023-03-08T20:00:46.440Z,100.00
2023-03-08T20:03:13.599Z,100.00
2023-03-08T20:05:41.762Z,100.00
2023-03-08T20:08:08.170Z,100.00
2023-03-08T20:10:34.518Z,100.00
2023-03-08T20:13:03.976Z,100.00
2023-03-08T20:15:30.461Z,100.00
2023-03-08T20:17:56.838Z,100.00
2023-03-08T20:20:23.257Z,100.00
2023-03-08T20:22:49.698Z,100.00
2023-03-08T20:25:16.087Z,100.00
2023-03-08T20:27:43.464Z,100.00
2023-03-08T20:30:11.138Z,100.00
2023-03-08T20:32:37.575Z,100.00
2023-03-08T20:35:05.143Z,100.00
2023-03-08T20:37:31.733Z,100.00
2023-03-08T20:39:59.023Z,100.00
2023-03-08T20:42:25.524Z,100.00
2023-03-08T20:44:52.016Z,100.00
2023-03-08T20:47:18.532Z,100.00
2023-03-08T20:49:44.896Z,100.00
2023-03-08T20:52:11.260Z,100.00
2023-03-08T20:54:37.631Z,100.00
2023-03-08T20:57:05.516Z,100.00
2023-03-08T20:59:32.055Z,100.00
2023-03-08T21:01:58.448Z,100.00
2023-03-08T21:04:24.880Z,100.00
2023-03-08T21:06:51.355Z,100.00
2023-03-08T21:09:17.749Z,100.00
2023-03-08T21:11:45.148Z,100.00
2023-03-08T21:14:11.758Z,100.00
2023-03-08T21:16:38.328Z,100.00
2023-03-08T21:19:05.096Z,100.00
2023-03-08T21:21:34.214Z,100.00
2023-03-08T21:24:02.974Z,100.00
2023-03-08T21:26:29.531Z,100.00
2023-03-08T21:28:57.919Z,100.00
2023-03-08T21:31:24.526Z,100.00
2023-03-08T21:33:51.094Z,100.00
2023-03-08T21:36:18.241Z,100.00
2023-03-08T21:38:44.666Z,100.00
2023-03-08T21:41:27.236Z,100.00
2023-03-08T21:43:53.740Z,100.00
2023-03-08T21:46:20.267Z,100.00
2023-03-08T21:48:46.829Z,100.00
2023-03-08T21:51:13.346Z,100.00
2023-03-08T21:53:39.845Z,100.00
2023-03-08T21:56:08.323Z,100.00
2023-03-08T21:58:35.335Z,100.00
2023-03-08T22:01:02.321Z,100.00
2023-03-08T22:03:30.735Z,100.00
2023-03-08T22:05:57.763Z,100.00
2023-03-08T22:08:25.160Z,100.00
2023-03-08T22:10:54.666Z,100.00
2023-03-08T22:13:21.104Z,100.00
2023-03-08T22:15:47.631Z,100.00
2023-03-08T22:18:14.005Z,100.00
2023-03-08T22:20:40.356Z,100.00
2023-03-08T22:23:09.707Z,100.00
2023-03-08T22:25:36.099Z,100.00
2023-03-08T22:28:02.483Z,100.00
2023-03-08T22:30:28.904Z,100.00
2023-03-08T22:32:55.257Z,100.00
2023-03-08T22:35:22.321Z,100.00
2023-03-08T22:37:49.162Z,100.00
2023-03-08T22:40:16.876Z,100.00
2023-03-08T22:42:43.429Z,100.00
2023-03-08T22:45:10.121Z,100.00
2023-03-08T22:47:36.740Z,100.00
2023-03-08T22:50:03.890Z,100.00
2023-03-08T22:52:30.245Z,100.00
2023-03-08T22:54:56.781Z,100.00
2023-03-08T22:57:23.163Z,100.00
2023-03-08T22:59:55.299Z,100.00
2023-03-08T23:02:21.684Z,100.00
2023-03-08T23:04:48.047Z,100.00
2023-03-08T23:07:14.495Z,100.00
2023-03-08T23:09:41.209Z,100.00
2023-03-08T23:12:07.870Z,100.00
2023-03-08T23:14:34.413Z,100.00
2023-03-08T23:17:00.958Z,100.00
2023-03-08T23:19:27.386Z,100.00
2023-03-08T23:21:53.759Z,100.00
2023-03-08T23:24:20.435Z,100.00
2023-03-08T23:26:46.878Z,100.00
2023-03-08T23:29:13.777Z,100.00
2023-03-08T23:31:42.997Z,100.00
2023-03-08T23:34:09.416Z,100.00
2023-03-08T23:36:35.770Z,100.00
2023-03-08T23:39:03.670Z,100.00
2023-03-08T23:41:30.900Z,100.00
2023-03-08T23:43:59.239Z,100.00
2023-03-08T23:46:25.932Z,100.00
2023-03-08T23:48:55.087Z,100.00
2023-03-08T23:51:22.179Z,100.00
2023-03-08T23:53:49.732Z,100.00
2023-03-08T23:56:18.878Z,100.00
2023-03-08T23:58:47.979Z,100.00
